Time;durP1;ratioP1;P1;durP2;ratioP2;P2;SDS_P1;SDS_P2;PMS_P1;PMS_P2;Temp;Humidity;BMP_temperature;BMP_pressure;BME280_temperature;BME280_humidity;BME280_pressure;Samples;Min_cycle;Max_cycle;Signal;HPM_P1;HPM_P2
2023/01/04 00:16:10;;;;;;;10.13;7.50;;;5.40;99.90;;;;;;6073160;29;20052;-83
2023/01/04 00:26:33;;;;;;;7.75;6.78;;;5.50;99.90;;;;;;6172829;28;20086;-77
2023/01/04 00:29:35;;;;;;;8.90;6.93;;;5.50;99.90;;;;;;6174461;28;20560;-77
2023/01/04 00:32:37;;;;;;;11.93;9.15;;;5.40;99.90;;;;;;6174644;28;20050;-77
2023/01/04 00:35:39;;;;;;;7.18;6.45;;;5.50;99.90;;;;;;6174241;28;20043;-76
2023/01/04 00:38:41;;;;;;;12.80;7.93;;;5.50;99.90;;;;;;6173811;28;20047;-77
2023/01/04 00:41:46;;;;;;;9.45;7.07;;;5.50;99.90;;;;;;6174523;28;20059;-76
2023/01/04 00:44:48;;;;;;;10.10;7.30;;;5.50;99.90;;;;;;6174168;28;20523;-77
2023/01/04 00:47:50;;;;;;;9.20;6.65;;;5.50;99.90;;;;;;6174099;28;20042;-77
2023/01/04 00:50:52;;;;;;;9.77;7.28;;;5.50;99.90;;;;;;6174199;28;20054;-77
2023/01/04 00:53:53;;;;;;;15.35;7.22;;;5.40;99.90;;;;;;6174006;28;20062;-77
2023/01/04 00:56:57;;;;;;;8.88;6.93;;;5.40;99.90;;;;;;6173927;28;20043;-77
2023/01/04 00:59:59;;;;;;;8.00;7.18;;;5.30;99.90;;;;;;6173756;28;20055;-76
2023/01/04 01:03:01;;;;;;;9.82;7.55;;;5.30;99.90;;;;;;6174193;28;20046;-76
2023/01/04 01:06:03;;;;;;;8.18;6.53;;;5.20;99.90;;;;;;6174537;28;20046;-77
2023/01/04 01:09:05;;;;;;;6.40;5.68;;;5.10;99.90;;;;;;6173565;28;20043;-77
2023/01/04 01:12:08;;;;;;;9.07;7.30;;;5.00;99.90;;;;;;6173766;28;20050;-76
2023/01/04 01:15:11;;;;;;;8.85;6.35;;;4.90;99.90;;;;;;6173450;28;20058;-77
2023/01/04 01:18:13;;;;;;;6.90;6.00;;;4.60;99.90;;;;;;6173362;28;20047;-77
2023/01/04 01:21:17;;;;;;;7.93;5.53;;;4.50;99.90;;;;;;6171664;28;20055;-77
2023/01/04 01:24:19;;;;;;;6.30;5.70;;;4.40;99.90;;;;;;6149338;28;20398;-77
2023/01/04 01:27:22;;;;;;;10.98;6.22;;;4.20;99.90;;;;;;6149274;28;20055;-77
2023/01/04 01:30:24;;;;;;;12.10;7.75;;;4.20;99.90;;;;;;6158760;28;20496;-77
2023/01/04 01:33:25;;;;;;;7.00;6.30;;;4.10;99.90;;;;;;6172839;28;20051;-77
2023/01/04 01:36:28;;;;;;;7.97;6.78;;;4.00;99.90;;;;;;6173438;28;20050;-76
2023/01/04 01:39:29;;;;;;;11.10;7.88;;;3.90;99.90;;;;;;6172899;28;20039;-76
2023/01/04 01:42:32;;;;;;;10.43;6.63;;;3.80;99.90;;;;;;6173641;28;20077;-77
2023/01/04 01:45:34;;;;;;;10.02;5.93;;;3.70;99.90;;;;;;6173447;28;20046;-77
2023/01/04 01:48:36;;;;;;;9.98;7.05;;;3.60;99.90;;;;;;6172293;28;20510;-76
2023/01/04 01:51:39;;;;;;;10.00;8.05;;;3.50;99.90;;;;;;6172624;28;20062;-76
2023/01/04 01:54:43;;;;;;;10.85;6.60;;;3.50;99.90;;;;;;6172654;28;20070;-76
2023/01/04 01:57:49;;;;;;;13.60;6.28;;;3.50;99.90;;;;;;6173080;28;20055;-76
2023/01/04 02:00:51;;;;;;;7.97;6.32;;;3.40;99.90;;;;;;6172783;28;20603;-76
2023/01/04 02:03:53;;;;;;;11.00;8.30;;;3.40;99.90;;;;;;6172748;28;20061;-76
2023/01/04 02:06:56;;;;;;;12.57;9.88;;;3.50;99.90;;;;;;6172765;28;20050;-76
2023/01/04 02:09:58;;;;;;;20.65;10.40;;;3.60;99.90;;;;;;6172722;28;20050;-76
2023/01/04 02:13:06;;;;;;;15.55;10.35;;;3.80;99.90;;;;;;6172482;28;20047;-76
2023/01/04 02:16:13;;;;;;;15.30;11.80;;;3.90;99.90;;;;;;6172640;28;20747;-76
2023/01/04 02:19:45;;;;;;;18.90;12.57;;;4.00;99.90;;;;;;6172560;28;20049;-76
2023/01/04 02:23:17;;;;;;;23.00;16.83;;;4.20;99.90;;;;;;6172608;28;20055;-76
2023/01/04 02:27:01;;;;;;;26.10;17.42;;;4.40;99.90;;;;;;6172660;28;20054;-76
2023/01/04 02:30:42;;;;;;;27.70;19.02;;;4.50;99.90;;;;;;6168665;28;20047;-76
2023/01/04 02:33:51;;;;;;;25.13;17.23;;;4.70;99.90;;;;;;6177602;28;20047;-76
2023/01/04 02:36:59;;;;;;;27.45;16.85;;;4.80;99.90;;;;;;6177055;28;20038;-77
2023/01/04 02:40:07;;;;;;;28.45;19.70;;;4.90;99.90;;;;;;6176978;28;20059;-77
2023/01/04 02:46:42;;;;;;;36.72;22.33;;;5.00;99.90;;;;;;6178214;28;20046;-79
2023/01/04 02:53:09;;;;;;;45.15;25.33;;;5.20;99.90;;;;;;6177004;28;20047;-76
2023/01/04 02:56:18;;;;;;;47.97;24.75;;;5.20;99.90;;;;;;6177120;28;20531;-76
2023/01/04 02:59:34;;;;;;;45.47;24.35;;;5.30;99.90;;;;;;6176401;28;20046;-77
2023/01/04 03:06:25;;;;;;;53.63;25.55;;;5.40;99.90;;;;;;6176950;28;20484;-77
2023/01/04 03:09:29;;;;;;;54.92;27.85;;;5.50;99.90;;;;;;6176338;28;20051;-77
2023/01/04 03:12:38;;;;;;;51.38;28.15;;;5.50;99.90;;;;;;6176554;28;20433;-77
2023/01/04 03:15:43;;;;;;;53.30;26.73;;;5.60;99.90;;;;;;6176287;28;20050;-76
2023/01/04 03:18:49;;;;;;;57.85;27.98;;;5.60;99.90;;;;;;6176309;28;20043;-77
2023/01/04 03:21:52;;;;;;;49.20;26.23;;;5.70;99.90;;;;;;6169750;28;20058;-76
2023/01/04 03:48:57;;;;;;;39.47;21.85;;;5.80;99.90;;;;;;6151186;28;20405;-76
2023/01/04 03:52:02;;;;;;;39.03;21.05;;;5.80;99.90;;;;;;6173921;28;20054;-76
2023/01/04 03:55:08;;;;;;;37.88;21.95;;;5.80;99.90;;;;;;6175222;28;20043;-76
2023/01/04 03:58:10;;;;;;;41.35;22.02;;;5.80;99.90;;;;;;6175601;28;20058;-76
2023/01/04 04:01:12;;;;;;;39.50;21.23;;;5.80;99.90;;;;;;6175353;28;20050;-76
2023/01/04 04:10:56;;;;;;;34.25;20.20;;;5.80;99.90;;;;;;6174812;28;20070;-76
2023/01/04 04:13:58;;;;;;;42.63;21.02;;;5.70;99.90;;;;;;6175153;28;20416;-76
2023/01/04 04:17:00;;;;;;;33.60;20.10;;;5.70;99.90;;;;;;6174934;28;20093;-76
2023/01/04 04:20:01;;;;;;;36.00;23.05;;;5.70;99.90;;;;;;6174768;28;20047;-76
2023/01/04 04:23:03;;;;;;;37.00;19.67;;;5.70;99.90;;;;;;6174897;28;20051;-77
2023/01/04 04:26:07;;;;;;;36.42;19.38;;;5.70;99.90;;;;;;6174585;28;20055;-76
2023/01/04 04:29:08;;;;;;;36.92;19.95;;;5.70;99.90;;;;;;6174149;28;20070;-76
2023/01/04 04:32:10;;;;;;;32.53;19.90;;;5.70;99.90;;;;;;6174439;28;20047;-77
2023/01/04 04:35:12;;;;;;;29.55;17.45;;;5.70;99.90;;;;;;6174472;28;20427;-77
2023/01/04 04:38:14;;;;;;;27.98;16.05;;;5.70;99.90;;;;;;6174882;28;20050;-77
2023/01/04 04:44:36;;;;;;;23.35;13.25;;;5.70;99.90;;;;;;6174141;28;20508;-76
2023/01/04 04:47:38;;;;;;;21.25;12.70;;;5.70;99.90;;;;;;6173849;28;20047;-77
2023/01/04 04:50:39;;;;;;;17.95;12.27;;;5.70;99.90;;;;;;6174372;28;20056;-77
2023/01/04 04:53:41;;;;;;;15.20;10.93;;;5.80;99.90;;;;;;6173335;28;20393;-77
2023/01/04 04:56:44;;;;;;;20.05;11.93;;;5.80;99.90;;;;;;6174226;28;20058;-77
2023/01/04 04:59:46;;;;;;;14.23;9.20;;;5.90;99.90;;;;;;6173546;28;20068;-77
2023/01/04 05:02:47;;;;;;;11.73;8.85;;;6.00;99.90;;;;;;6174141;28;20047;-76
2023/01/04 05:05:49;;;;;;;10.93;8.55;;;6.10;99.90;;;;;;6174382;28;20151;-77
2023/01/04 05:08:51;;;;;;;11.50;8.98;;;6.10;99.90;;;;;;6173529;28;20050;-77
2023/01/04 05:15:10;;;;;;;7.07;5.53;;;6.40;99.90;;;;;;6141110;28;20109;-77
2023/01/04 05:18:13;;;;;;;4.82;4.22;;;6.50;99.90;;;;;;6173350;28;20496;-77
2023/01/04 05:21:15;;;;;;;5.25;4.30;;;6.60;99.90;;;;;;6173486;28;20527;-77
2023/01/04 05:24:17;;;;;;;3.85;3.13;;;6.70;99.90;;;;;;6173449;28;20074;-77
2023/01/04 05:27:20;;;;;;;3.17;2.80;;;6.90;99.90;;;;;;6173386;28;20046;-78
2023/01/04 05:33:41;;;;;;;4.30;2.92;;;7.10;99.90;;;;;;6173656;28;20047;-76
2023/01/04 05:36:42;;;;;;;5.30;2.42;;;7.30;99.90;;;;;;6173229;28;20047;-77
2023/01/04 05:39:44;;;;;;;2.75;2.10;;;7.40;99.90;;;;;;6173148;28;20074;-77
2023/01/04 05:42:48;;;;;;;3.78;2.47;;;7.50;99.90;;;;;;6173226;28;21111;-77
2023/01/04 05:45:51;;;;;;;4.40;1.92;;;7.60;99.90;;;;;;6171310;28;20489;-77
2023/01/04 05:48:52;;;;;;;2.65;1.58;;;7.60;99.90;;;;;;6172577;28;20105;-77
2023/01/04 05:51:54;;;;;;;3.10;1.50;;;7.70;99.90;;;;;;6172698;28;20047;-77
2023/01/04 05:54:56;;;;;;;2.30;1.60;;;7.90;99.90;;;;;;6172984;28;20042;-77
2023/01/04 05:57:59;;;;;;;3.80;1.65;;;8.00;99.90;;;;;;6173115;28;20421;-77
2023/01/04 06:01:01;;;;;;;1.52;1.42;;;8.00;99.90;;;;;;6173042;28;20131;-77
2023/01/04 06:04:03;;;;;;;3.90;1.80;;;8.10;99.90;;;;;;6172654;28;20051;-77
2023/01/04 06:07:04;;;;;;;1.35;1.25;;;8.20;99.90;;;;;;6172791;28;20054;-77
2023/01/04 06:10:08;;;;;;;4.03;1.48;;;8.20;99.90;;;;;;6172679;28;20050;-76
2023/01/04 06:13:11;;;;;;;1.65;1.55;;;8.30;99.90;;;;;;6172724;28;20054;-76
2023/01/04 06:16:12;;;;;;;2.25;1.33;;;8.30;99.90;;;;;;6172755;28;20077;-77
2023/01/04 06:19:14;;;;;;;1.33;1.23;;;8.30;99.90;;;;;;6172303;28;20047;-77
2023/01/04 06:22:16;;;;;;;4.00;1.45;;;8.40;99.90;;;;;;6163138;28;20051;-77
2023/01/04 06:25:18;;;;;;;4.55;1.45;;;8.40;99.90;;;;;;6149855;28;20059;-78
2023/01/04 06:28:21;;;;;;;1.50;1.40;;;8.50;99.90;;;;;;6151383;28;20054;-78
2023/01/04 06:31:23;;;;;;;2.28;1.27;;;8.50;99.90;;;;;;6149684;28;20051;-77
2023/01/04 06:34:24;;;;;;;3.28;1.40;;;8.50;99.90;;;;;;6149301;28;20051;-76
2023/01/04 06:37:26;;;;;;;2.58;1.63;;;8.60;99.90;;;;;;6149612;28;20078;-77
2023/01/04 06:40:28;;;;;;;3.63;1.10;;;8.60;99.90;;;;;;6150177;28;20073;-77
2023/01/04 06:43:31;;;;;;;3.15;2.72;;;8.60;99.90;;;;;;6149504;28;20052;-76
2023/01/04 06:46:32;;;;;;;1.77;1.67;;;8.70;99.90;;;;;;6150478;28;20055;-76
2023/01/04 06:49:34;;;;;;;5.85;1.27;;;8.70;99.90;;;;;;6174505;28;20047;-77
2023/01/04 06:52:36;;;;;;;1.35;1.02;;;8.70;99.90;;;;;;6174019;28;20047;-76
2023/01/04 06:55:37;;;;;;;1.50;1.10;;;8.70;99.90;;;;;;6172267;28;20126;-77
2023/01/04 06:58:40;;;;;;;3.03;0.90;;;8.80;99.90;;;;;;6171791;28;20051;-77
2023/01/04 07:01:42;;;;;;;4.78;1.27;;;8.80;99.90;;;;;;6172775;28;20054;-77
2023/01/04 07:04:44;;;;;;;1.40;1.00;;;8.80;99.90;;;;;;6172060;28;20062;-77
2023/01/04 07:07:45;;;;;;;3.60;1.35;;;8.90;99.90;;;;;;6171914;28;20073;-77
2023/01/04 07:10:47;;;;;;;3.28;1.30;;;8.90;99.90;;;;;;6171650;28;20054;-77
2023/01/04 07:13:51;;;;;;;2.55;1.23;;;8.90;99.90;;;;;;6172701;28;20059;-76
2023/01/04 07:16:53;;;;;;;1.98;0.80;;;8.90;99.90;;;;;;6172585;28;20539;-77
2023/01/04 07:19:55;;;;;;;1.92;1.38;;;8.90;99.90;;;;;;6175813;28;20047;-76
2023/01/04 07:22:57;;;;;;;1.35;1.02;;;8.90;99.90;;;;;;6176058;28;20046;-77
2023/01/04 07:26:01;;;;;;;5.75;1.35;;;8.90;99.90;;;;;;6176050;28;20054;-77
2023/01/04 07:32:23;;;;;;;1.17;1.08;;;8.90;99.90;;;;;;6175751;28;20046;-77
2023/01/04 07:35:25;;;;;;;4.35;1.15;;;9.00;99.90;;;;;;6176099;28;20047;-77
2023/01/04 07:38:26;;;;;;;1.65;1.30;;;9.00;99.90;;;;;;6174735;28;20497;-77
2023/01/04 07:41:28;;;;;;;1.33;0.98;;;9.00;99.90;;;;;;6175370;28;20047;-77
2023/01/04 07:44:31;;;;;;;2.60;1.35;;;9.10;99.90;;;;;;6175877;28;20054;-77
2023/01/04 07:47:33;;;;;;;2.83;0.98;;;9.10;99.90;;;;;;6175372;28;20221;-77
2023/01/04 07:50:34;;;;;;;1.40;0.82;;;9.10;99.90;;;;;;6176692;28;20062;-78
2023/01/04 07:53:36;;;;;;;1.50;1.20;;;9.10;99.90;;;;;;6178565;28;20047;-78
2023/01/04 07:56:38;;;;;;;5.75;1.02;;;9.10;99.90;;;;;;6176360;28;20051;-77
2023/01/04 07:59:41;;;;;;;1.98;1.25;;;9.10;99.90;;;;;;6175399;28;20050;-77
2023/01/04 08:02:42;;;;;;;1.45;1.20;;;9.10;99.90;;;;;;6175327;28;20647;-77
2023/01/04 08:05:44;;;;;;;1.20;1.10;;;9.10;99.90;;;;;;6175751;28;20046;-77
2023/01/04 08:08:46;;;;;;;1.30;0.75;;;9.20;99.90;;;;;;6174833;28;20050;-77
2023/01/04 08:11:48;;;;;;;2.10;0.70;;;9.20;99.90;;;;;;6174938;28;20047;-78
2023/01/04 08:14:51;;;;;;;0.80;0.80;;;9.20;99.90;;;;;;6174730;28;20051;-77
2023/01/04 08:17:53;;;;;;;8.15;2.97;;;9.20;99.90;;;;;;6175166;28;20062;-77
2023/01/04 08:21:02;;;;;;;1.83;0.90;;;9.20;99.90;;;;;;6174986;28;20193;-77
2023/01/04 08:24:05;;;;;;;3.53;0.95;;;9.30;99.90;;;;;;6150787;28;20600;-78
2023/01/04 08:27:07;;;;;;;0.60;0.60;;;9.30;99.90;;;;;;6150616;28;20047;-77
2023/01/04 08:30:11;;;;;;;1.35;1.15;;;9.30;99.90;;;;;;6151004;28;20051;-77
2023/01/04 08:33:13;;;;;;;6.05;1.20;;;9.40;99.90;;;;;;6150747;28;20062;-76
2023/01/04 08:36:18;;;;;;;1.35;0.70;;;9.50;99.90;;;;;;6151803;28;20586;-77
2023/01/04 08:39:20;;;;;;;1.17;1.08;;;9.60;99.90;;;;;;6152073;28;20047;-77
2023/01/04 08:42:22;;;;;;;2.40;0.77;;;9.60;99.90;;;;;;6152555;28;20054;-77
2023/01/04 08:45:25;;;;;;;1.30;1.13;;;9.70;99.90;;;;;;6156062;28;20425;-76
2023/01/04 08:48:26;;;;;;;3.30;0.75;;;9.70;99.90;;;;;;6175665;28;20050;-77
2023/01/04 08:51:28;;;;;;;1.73;1.00;;;9.80;99.90;;;;;;6175804;28;20062;-77
2023/01/04 08:54:30;;;;;;;1.95;0.77;;;9.80;99.90;;;;;;6176641;28;20055;-77
2023/01/04 08:57:33;;;;;;;1.52;1.17;;;9.80;99.90;;;;;;6111295;28;20043;-77
2023/01/04 09:00:36;;;;;;;2.53;0.82;;;9.90;99.90;;;;;;6179468;28;20568;-77
2023/01/04 09:03:38;;;;;;;2.00;0.80;;;9.90;99.90;;;;;;6177472;28;20439;-77
2023/01/04 09:06:41;;;;;;;4.68;1.15;;;10.00;99.90;;;;;;6177091;28;20508;-77
2023/01/04 09:09:43;;;;;;;1.50;0.80;;;10.00;99.90;;;;;;6174173;28;20520;-77
2023/01/04 09:12:46;;;;;;;2.55;2.15;;;10.00;99.90;;;;;;6176148;28;20051;-77
2023/01/04 09:15:49;;;;;;;3.83;1.73;;;10.10;99.90;;;;;;6175336;28;20259;-75
2023/01/04 09:18:51;;;;;;;1.58;1.23;;;10.10;99.90;;;;;;6153648;28;20050;-76
2023/01/04 09:21:53;;;;;;;1.73;0.75;;;10.10;99.90;;;;;;6175468;28;20054;-76
2023/01/04 09:24:55;;;;;;;1.42;1.05;;;10.20;99.90;;;;;;6175845;28;20050;-77
2023/01/04 09:27:57;;;;;;;1.20;0.88;;;10.20;99.90;;;;;;6174565;28;20508;-76
2023/01/04 09:31:04;;;;;;;1.95;0.68;;;10.30;99.90;;;;;;6175436;28;20053;-77
2023/01/04 09:34:06;;;;;;;1.40;0.82;;;10.30;99.90;;;;;;6177122;28;20058;-77
2023/01/04 09:37:08;;;;;;;3.63;1.02;;;10.30;99.90;;;;;;6174944;28;20086;-78
2023/01/04 09:40:20;;;;;;;1.92;1.27;;;10.30;99.90;;;;;;6172750;28;20047;-78
2023/01/04 09:43:23;;;;;;;3.15;1.23;;;10.40;99.90;;;;;;6174865;28;20039;-77
2023/01/04 09:46:38;;;;;;;4.03;1.08;;;10.40;99.90;;;;;;6173481;28;20047;-77
2023/01/04 09:49:45;;;;;;;2.13;1.35;;;10.40;99.90;;;;;;6173356;28;20050;-77
2023/01/04 09:52:56;;;;;;;1.75;1.08;;;10.40;99.90;;;;;;6174138;28;20043;-77
2023/01/04 09:56:04;;;;;;;8.48;1.83;;;10.40;99.90;;;;;;6175179;28;20047;-77
2023/01/04 09:59:11;;;;;;;2.58;1.10;;;10.40;99.90;;;;;;6172896;28;20049;-77
2023/01/04 10:02:21;;;;;;;1.27;0.90;;;10.40;99.90;;;;;;6173370;28;20043;-77
2023/01/04 10:05:26;;;;;;;3.00;0.95;;;10.50;99.90;;;;;;6174761;28;20050;-77
2023/01/04 10:08:30;;;;;;;0.98;0.80;;;10.50;99.90;;;;;;6172605;28;20057;-77
2023/01/04 10:11:44;;;;;;;1.30;0.95;;;10.60;99.90;;;;;;6173649;28;20057;-78
2023/01/04 10:14:58;;;;;;;5.63;1.10;;;10.70;99.90;;;;;;6172885;28;20396;-79
2023/01/04 10:18:17;;;;;;;2.05;0.75;;;10.70;99.90;;;;;;6173330;28;20046;-78
2023/01/04 10:21:40;;;;;;;3.55;0.85;;;10.80;99.90;;;;;;6169494;28;20053;-77
2023/01/04 10:24:50;;;;;;;6.40;0.85;;;10.90;99.90;;;;;;6172264;28;20150;-77
2023/01/04 10:28:12;;;;;;;2.13;1.20;;;10.80;99.90;;;;;;6173074;28;20047;-77
2023/01/04 10:31:18;;;;;;;1.30;0.68;;;10.80;99.90;;;;;;6172732;28;20046;-77
2023/01/04 10:34:25;;;;;;;4.35;1.27;;;10.80;99.90;;;;;;6173829;28;20051;-78
2023/01/04 10:37:35;;;;;;;1.90;0.82;;;10.80;99.90;;;;;;6171995;28;20047;-77
2023/01/04 10:40:39;;;;;;;1.50;0.70;;;10.90;99.90;;;;;;6172856;28;20047;-77
2023/01/04 10:43:48;;;;;;;1.65;1.02;;;10.90;99.90;;;;;;6172527;28;20057;-77
2023/01/04 10:47:02;;;;;;;2.40;1.00;;;10.90;99.90;;;;;;6173745;28;20123;-77
2023/01/04 10:50:12;;;;;;;0.80;0.70;;;10.90;99.90;;;;;;6173387;28;20251;-77
2023/01/04 10:53:19;;;;;;;1.80;0.88;;;11.00;99.90;;;;;;6178727;28;20455;-77
2023/01/04 10:56:28;;;;;;;2.53;0.88;;;11.00;99.90;;;;;;6177680;28;20046;-76
2023/01/04 10:59:37;;;;;;;4.47;1.35;;;11.00;99.90;;;;;;6178294;28;20046;-76
2023/01/04 11:02:45;;;;;;;1.73;1.10;;;11.00;99.90;;;;;;6171293;28;20047;-76
2023/01/04 11:05:55;;;;;;;1.25;1.13;;;11.00;99.90;;;;;;6178234;28;20138;-77
2023/01/04 11:09:01;;;;;;;2.13;0.73;;;11.00;99.90;;;;;;6177014;28;20051;-77
2023/01/04 11:12:03;;;;;;;4.28;1.42;;;11.00;99.90;;;;;;6177032;28;20047;-77
2023/01/04 11:15:06;;;;;;;2.17;0.75;;;11.10;99.90;;;;;;6175669;28;20050;-76
2023/01/04 11:18:10;;;;;;;2.95;1.77;;;11.10;99.90;;;;;;6176382;28;20058;-77
2023/01/04 11:21:16;;;;;;;2.83;1.05;;;11.10;99.90;;;;;;6175243;28;20050;-77
2023/01/04 11:24:18;;;;;;;3.50;0.88;;;11.10;99.90;;;;;;6176563;28;20150;-77
2023/01/04 11:27:24;;;;;;;1.45;0.95;;;11.10;99.90;;;;;;6175977;28;20047;-78
2023/01/04 11:30:30;;;;;;;1.98;0.90;;;11.00;99.90;;;;;;6176565;28;20062;-77
2023/01/04 11:33:52;;;;;;;1.65;0.70;;;11.00;99.90;;;;;;6168701;28;20061;-77
2023/01/04 11:36:55;;;;;;;1.30;0.95;;;11.00;99.90;;;;;;6176374;28;20050;-77
2023/01/04 11:40:23;;;;;;;2.85;0.80;;;11.00;99.90;;;;;;6172662;28;20050;-77
2023/01/04 11:43:26;;;;;;;2.05;0.93;;;11.10;99.90;;;;;;6175732;28;20418;-77
2023/01/04 11:46:29;;;;;;;1.70;1.55;;;11.10;99.90;;;;;;6176242;28;20066;-77
2023/01/04 11:49:35;;;;;;;5.20;0.90;;;11.10;99.90;;;;;;6175976;28;20410;-77
2023/01/04 11:52:38;;;;;;;3.58;1.70;;;11.10;99.90;;;;;;6175833;28;20053;-77
2023/01/04 11:55:40;;;;;;;1.50;1.10;;;11.20;99.90;;;;;;6176691;28;20104;-77
2023/01/04 11:58:43;;;;;;;0.68;0.68;;;11.20;99.90;;;;;;6173785;28;20061;-77
2023/01/04 12:01:48;;;;;;;0.70;0.70;;;11.20;99.90;;;;;;6175633;28;20051;-77
2023/01/04 12:04:51;;;;;;;7.72;0.82;;;11.30;99.90;;;;;;6175188;28;20504;-77
2023/01/04 12:07:54;;;;;;;3.15;1.20;;;11.20;99.90;;;;;;6175242;28;20046;-76
2023/01/04 12:10:57;;;;;;;1.23;0.85;;;11.20;99.90;;;;;;6175250;28;20106;-77
2023/01/04 12:14:00;;;;;;;4.10;1.08;;;11.20;99.90;;;;;;6175998;28;20057;-77
2023/01/04 12:17:04;;;;;;;1.38;1.05;;;11.20;99.90;;;;;;6174935;28;20062;-76
2023/01/04 12:20:19;;;;;;;3.97;1.35;;;11.30;99.90;;;;;;6173731;28;20039;-77
2023/01/04 12:23:23;;;;;;;3.08;0.88;;;11.20;99.90;;;;;;6171931;28;20119;-77
2023/01/04 12:34:35;;;;;;;0.98;0.75;;;11.30;99.90;;;;;;6154186;28;20419;-83
2023/01/04 12:37:48;;;;;;;1.48;0.68;;;11.40;99.90;;;;;;6213725;28;20046;-84
2023/01/04 12:41:08;;;;;;;0.98;0.70;;;11.40;99.90;;;;;;6211873;28;20057;-84
2023/01/04 12:44:45;;;;;;;1.10;0.82;;;11.30;99.90;;;;;;6212809;28;20108;-85
2023/01/04 12:51:22;;;;;;;2.55;0.80;;;11.50;99.90;;;;;;6194182;28;20054;-84
2023/01/04 12:54:44;;;;;;;1.15;0.80;;;11.50;99.90;;;;;;6184012;28;20050;-84
2023/01/04 12:57:47;;;;;;;1.90;1.80;;;11.60;99.90;;;;;;6191096;28;20103;-85
2023/01/04 13:01:09;;;;;;;3.78;1.63;;;11.50;99.90;;;;;;6201028;28;20055;-88
2023/01/04 13:04:29;;;;;;;13.65;7.28;;;11.60;99.90;;;;;;6209382;28;20053;-82
2023/01/04 13:07:41;;;;;;;8.75;4.93;;;11.60;99.90;;;;;;6210901;28;20046;-84
2023/01/04 13:10:47;;;;;;;7.15;3.25;;;11.60;99.90;;;;;;6211895;28;20073;-86
2023/01/04 13:13:57;;;;;;;1.67;1.33;;;11.60;99.90;;;;;;6214325;28;20054;-85
2023/01/04 13:17:16;;;;;;;4.13;1.25;;;11.50;99.90;;;;;;6213492;28;20054;-87
2023/01/04 13:20:21;;;;;;;10.77;9.75;;;11.60;99.90;;;;;;6213954;28;20062;-84
2023/01/04 13:23:26;;;;;;;11.60;9.95;;;11.60;99.90;;;;;;6214248;28;20046;-85
2023/01/04 13:26:38;;;;;;;6.50;3.10;;;11.80;99.90;;;;;;6214110;28;20046;-86
2023/01/04 13:29:42;;;;;;;3.85;2.38;;;11.80;99.90;;;;;;6216315;28;20121;-86
2023/01/04 13:32:47;;;;;;;1.88;1.52;;;11.70;99.90;;;;;;6213140;28;20042;-85
2023/01/04 13:36:01;;;;;;;5.72;3.70;;;11.70;99.90;;;;;;6216243;28;20050;-84
2023/01/04 13:39:07;;;;;;;8.88;4.45;;;11.70;99.90;;;;;;6217667;28;20050;-84
2023/01/04 13:42:16;;;;;;;5.80;4.65;;;11.70;99.90;;;;;;6216560;28;20133;-84
2023/01/04 13:45:44;;;;;;;4.10;3.38;;;11.80;99.90;;;;;;6211777;28;20054;-85
2023/01/04 13:48:48;;;;;;;1.15;0.93;;;11.70;99.90;;;;;;6218556;28;20046;-84
2023/01/04 13:51:50;;;;;;;1.75;1.10;;;11.60;99.90;;;;;;6210755;28;20060;-84
2023/01/04 13:54:52;;;;;;;2.65;2.05;;;11.70;99.90;;;;;;6213360;28;20228;-85
2023/01/04 13:57:56;;;;;;;1.92;1.42;;;11.70;99.90;;;;;;6214816;28;20056;-84
2023/01/04 14:01:04;;;;;;;6.03;1.33;;;11.70;99.90;;;;;;6214788;28;20048;-84
2023/01/04 14:04:07;;;;;;;5.50;1.10;;;11.70;99.90;;;;;;6215965;28;20053;-85
2023/01/04 14:07:09;;;;;;;1.35;1.25;;;11.70;99.90;;;;;;6214355;28;20042;-84
2023/01/04 14:10:18;;;;;;;10.85;9.77;;;11.70;99.90;;;;;;6215234;28;20054;-84
2023/01/04 14:13:20;;;;;;;2.35;2.15;;;11.70;99.90;;;;;;6214003;28;20043;-85
2023/01/04 14:16:26;;;;;;;11.13;10.00;;;11.80;99.90;;;;;;6214172;28;20050;-84
2023/01/04 14:19:45;;;;;;;31.33;28.58;;;11.90;99.90;;;;;;6212559;28;20109;-83
2023/01/04 14:22:57;;;;;;;3.47;3.00;;;11.90;99.90;;;;;;6209876;28;20109;-85
2023/01/04 14:25:59;;;;;;;4.47;1.45;;;11.90;99.90;;;;;;6213524;28;20053;-83
2023/01/04 14:29:20;;;;;;;6.80;6.05;;;11.80;99.90;;;;;;6217052;28;20046;-83
2023/01/04 14:32:24;;;;;;;11.38;9.52;;;11.80;99.90;;;;;;6219635;28;20547;-85
2023/01/04 14:35:27;;;;;;;7.82;5.75;;;11.80;99.90;;;;;;6229767;28;20060;-86
2023/01/04 14:38:29;;;;;;;4.53;3.75;;;11.70;99.90;;;;;;6226234;28;20535;-86
2023/01/04 14:41:33;;;;;;;1.67;1.50;;;11.60;99.90;;;;;;6224101;28;20133;-84
2023/01/04 14:44:39;;;;;;;1.30;1.20;;;11.60;99.90;;;;;;6219635;28;20087;-87
2023/01/04 14:47:43;;;;;;;2.45;2.13;;;11.60;99.90;;;;;;6220284;28;20580;-85
2023/01/04 14:50:44;;;;;;;3.15;2.65;;;11.60;99.90;;;;;;6221229;28;20081;-87
2023/01/04 14:53:46;;;;;;;2.38;1.00;;;11.60;99.90;;;;;;6220901;28;20050;-86
2023/01/04 14:56:48;;;;;;;1.30;1.20;;;11.60;99.90;;;;;;6219170;28;20050;-85
2023/01/04 14:59:52;;;;;;;1.02;0.93;;;11.60;99.90;;;;;;6213918;28;20125;-84
2023/01/04 15:02:55;;;;;;;4.93;1.20;;;11.60;99.90;;;;;;6214454;28;20045;-83
2023/01/04 15:05:57;;;;;;;2.63;0.73;;;11.60;99.90;;;;;;6214504;28;20073;-88
2023/01/04 15:08:58;;;;;;;4.00;1.13;;;11.60;99.90;;;;;;6213716;28;20057;-85
2023/01/04 15:12:00;;;;;;;14.45;2.45;;;11.60;99.90;;;;;;6212731;28;20420;-82
2023/01/04 15:15:03;;;;;;;2.20;1.00;;;11.60;99.90;;;;;;6210870;28;20045;-84
2023/01/04 15:18:06;;;;;;;0.85;0.68;;;11.60;99.90;;;;;;6214621;28;20050;-85
2023/01/04 15:21:09;;;;;;;1.77;0.80;;;11.60;99.90;;;;;;6213519;28;20042;-83
2023/01/04 15:24:11;;;;;;;1.55;0.73;;;11.60;99.90;;;;;;6209968;28;20054;-84
2023/01/04 15:27:12;;;;;;;0.93;0.68;;;11.60;99.90;;;;;;6210778;28;20053;-82
2023/01/04 15:30:14;;;;;;;0.93;0.70;;;11.60;99.90;;;;;;6210698;28;20050;-83
2023/01/04 15:33:17;;;;;;;3.53;0.80;;;11.70;99.90;;;;;;6211175;28;20038;-84
2023/01/04 15:36:19;;;;;;;0.93;0.70;;;11.60;99.90;;;;;;6218749;28;20050;-83
2023/01/04 15:39:20;;;;;;;1.17;0.80;;;11.70;99.90;;;;;;6211636;28;20050;-84
2023/01/04 15:45:41;;;;;;;1.58;0.82;;;11.70;99.90;;;;;;6212371;28;20047;-81
2023/01/04 15:48:44;;;;;;;0.63;0.60;;;11.70;99.90;;;;;;6213089;28;20050;-83
2023/01/04 15:51:46;;;;;;;2.65;0.98;;;11.70;99.90;;;;;;6214278;28;20046;-83
2023/01/04 15:54:48;;;;;;;6.05;0.55;;;11.70;99.90;;;;;;6213961;28;20057;-82
2023/01/04 15:57:50;;;;;;;1.13;0.90;;;11.60;99.90;;;;;;6214136;28;20046;-83
2023/01/04 16:00:51;;;;;;;1.05;0.90;;;11.60;99.90;;;;;;6214453;28;20054;-83
2023/01/04 16:03:54;;;;;;;0.70;0.70;;;11.50;99.90;;;;;;6214805;28;20046;-82
2023/01/04 16:06:56;;;;;;;1.58;0.95;;;11.50;99.90;;;;;;6214474;28;20042;-83
2023/01/04 16:09:58;;;;;;;1.23;1.10;;;11.50;99.90;;;;;;6213705;28;20144;-84
2023/01/04 16:13:00;;;;;;;1.85;0.93;;;11.50;99.90;;;;;;6212562;28;20134;-84
2023/01/04 16:16:02;;;;;;;0.75;0.70;;;11.60;99.90;;;;;;6213275;28;20054;-83
2023/01/04 16:19:06;;;;;;;2.30;0.50;;;11.60;99.90;;;;;;6211374;28;20042;-84
2023/01/04 16:22:08;;;;;;;0.98;0.73;;;11.60;99.90;;;;;;6211217;28;20053;-82
2023/01/04 16:25:11;;;;;;;1.13;0.90;;;11.70;99.90;;;;;;6207695;28;20051;-83
2023/01/04 16:28:13;;;;;;;0.65;0.50;;;11.70;99.90;;;;;;6208539;28;20463;-83
2023/01/04 16:31:14;;;;;;;0.68;0.68;;;11.70;99.90;;;;;;6205143;28;20459;-82
2023/01/04 16:34:17;;;;;;;5.45;4.28;;;11.70;99.90;;;;;;6211359;28;20061;-84
2023/01/04 16:37:20;;;;;;;2.67;2.47;;;11.60;99.90;;;;;;6213250;28;20050;-83
2023/01/04 16:40:23;;;;;;;4.03;0.80;;;11.60;99.90;;;;;;6211722;28;20114;-83
2023/01/04 16:43:25;;;;;;;7.82;0.80;;;11.60;99.90;;;;;;6212448;28;20535;-84
2023/01/04 16:46:29;;;;;;;0.98;0.90;;;11.60;99.90;;;;;;6213031;28;20050;-84
2023/01/04 16:49:32;;;;;;;2.42;1.02;;;11.60;99.90;;;;;;6213357;28;20116;-83
2023/01/04 16:52:34;;;;;;;1.92;1.15;;;11.60;99.90;;;;;;6213043;28;20046;-84
2023/01/04 16:55:36;;;;;;;1.08;0.73;;;11.50;99.90;;;;;;6213250;28;20046;-82
2023/01/04 16:58:42;;;;;;;0.63;0.63;;;11.50;99.90;;;;;;6213609;28;20049;-83
2023/01/04 17:01:46;;;;;;;1.67;1.00;;;11.40;99.90;;;;;;6212498;28;20073;-83
2023/01/04 17:04:58;;;;;;;1.00;0.57;;;11.30;99.90;;;;;;6210545;28;20056;-83
2023/01/04 17:07:59;;;;;;;1.42;0.65;;;11.20;99.90;;;;;;6212518;28;20056;-82
2023/01/04 17:11:06;;;;;;;0.80;0.77;;;11.10;99.90;;;;;;6214989;28;20038;-82
2023/01/04 17:14:10;;;;;;;1.35;0.80;;;11.00;99.90;;;;;;6215632;28;20053;-82
2023/01/04 17:17:11;;;;;;;1.60;0.95;;;10.90;99.90;;;;;;6216675;28;20053;-84
2023/01/04 17:20:15;;;;;;;1.48;0.77;;;10.80;99.90;;;;;;6215441;28;20056;-84
2023/01/04 17:23:18;;;;;;;3.30;1.10;;;10.70;99.90;;;;;;6217471;28;20419;-83
2023/01/04 17:26:22;;;;;;;3.50;1.00;;;10.70;99.90;;;;;;6214498;28;20042;-83
2023/01/04 17:29:24;;;;;;;0.70;0.70;;;10.70;99.90;;;;;;6190754;28;20061;-83
2023/01/04 17:32:25;;;;;;;0.85;0.85;;;10.70;99.90;;;;;;6216051;28;20046;-83
2023/01/04 17:35:29;;;;;;;1.25;0.90;;;10.70;99.90;;;;;;6215793;28;20496;-82